Somajesi — MN93314 — position and weather

sailwx.info

Track history (hours):
 
Tides and Currents Weather Stations Pressure Air Temp Water Temp Dewpoint Dewpoint Depression Visibility Wind Speed Wind Dir Waves Ship Positions

Somajesi

Last reported at 2018-Jul-14 16:11 UTC. Time now 2018-Jul-20 16:24 UTC.
Position N 36°02' W 005°25'.

Length 13 m.

Type: Sailing vessel. MMSI: 227033040.

Date/timePositionNaut miles runAvg speedWind from/ knotsBaromVisibWave heightAir tempDewpointWater temp
2018-Jul-14 16:11N 36°02' W 005°25'  
2018-Jul-08 20:51N 37°29' W 009°29'30 7.0
2018-Jul-08 16:32N 37°58' W 009°22'1 7.4
2018-Jul-08 16:23N 37°60' W 009°22'3 7.3
2018-Jul-08 15:58N 38°03' W 009°21'23 7.2
2018-Jul-08 12:46N 38°25' W 009°19'2 8.0
2018-Jul-08 12:29N 38°28' W 009°19'4 7.4
2018-Jul-08 11:56N 38°32' W 009°19'3 7.5
2018-Jul-08 11:29N 38°35' W 009°18'3 6.6
2018-Jul-08 10:58N 38°38' W 009°18'2 5.1
2018-Jul-08 10:30N 38°41' W 009°17'3 5.9
2018-Jul-08 10:00N 38°41' W 009°14'3 0.1
2018-Jul-06 14:01N 38°42' W 009°10'0 2.1
2018-Jul-06 14:00N 38°42' W 009°10'2 3.6
2018-Jul-06 13:30N 38°41' W 009°12'2 3.4
2018-Jul-06 12:51N 38°41' W 009°15'1 4.0
2018-Jul-06 12:30N 38°41' W 009°17'2 4.4
2018-Jul-06 11:59N 38°39' W 009°19'2 3.6
2018-Jul-06 11:29N 38°40' W 009°21'1 2.3
2018-Jul-06 11:00N 38°40' W 009°23'2 1.0
2018-Jul-06 08:49N 38°41' W 009°25'0 0.0
2018-Jul-06 08:19N 38°41' W 009°25'0 0.0
2018-Jul-06 06:43N 38°41' W 009°25'0 0.0
2018-Jul-05 23:19N 38°42' W 009°25'1 2.2
2018-Jul-05 22:55N 38°41' W 009°26'4 6.4
2018-Jul-05 22:19N 38°42' W 009°31'2 7.1
2018-Jul-05 22:00N 38°44' W 009°33'3 5.9
2018-Jul-05 21:30N 38°46' W 009°34'4 7.7
2018-Jul-05 21:00N 38°50' W 009°32'4 7.7
2018-Jul-05 20:30N 38°53' W 009°29'4 7.2
2018-Jul-05 19:59N 38°56' W 009°27'2 0.8
2018-Jul-05 17:46N 38°58' W 009°26'1 4.7
2018-Jul-05 17:30N 38°58' W 009°27'3 6.1
2018-Jul-05 17:00N 39°01' W 009°29'  
Track history (hours):
 
Tides and Currents Weather Stations Pressure Air Temp Water Temp Dewpoint Dewpoint Depression Visibility Wind Speed Wind Dir Waves Ship Positions

Somajesi

Last reported at 2018-Jul-14 16:11 UTC. Time now 2018-Jul-20 16:24 UTC.
Position N 36°02' W 005°25'.

Length 13 m.

Type: Sailing vessel. MMSI: 227033040.

Date/timePositionNaut miles runAvg speedWind from/ knotsBaromVisibWave heightAir tempDewpointWater temp
2018-Jul-14 16:11N 36°02' W 005°25'  
2018-Jul-08 20:51N 37°29' W 009°29'30 7.0
2018-Jul-08 16:32N 37°58' W 009°22'1 7.4
2018-Jul-08 16:23N 37°60' W 009°22'3 7.3
2018-Jul-08 15:58N 38°03' W 009°21'23 7.2
2018-Jul-08 12:46N 38°25' W 009°19'2 8.0
2018-Jul-08 12:29N 38°28' W 009°19'4 7.4
2018-Jul-08 11:56N 38°32' W 009°19'3 7.5
2018-Jul-08 11:29N 38°35' W 009°18'3 6.6
2018-Jul-08 10:58N 38°38' W 009°18'2 5.1
2018-Jul-08 10:30N 38°41' W 009°17'3 5.9
2018-Jul-08 10:00N 38°41' W 009°14'3 0.1
2018-Jul-06 14:01N 38°42' W 009°10'0 2.1
2018-Jul-06 14:00N 38°42' W 009°10'2 3.6
2018-Jul-06 13:30N 38°41' W 009°12'2 3.4
2018-Jul-06 12:51N 38°41' W 009°15'1 4.0
2018-Jul-06 12:30N 38°41' W 009°17'2 4.4
2018-Jul-06 11:59N 38°39' W 009°19'2 3.6
2018-Jul-06 11:29N 38°40' W 009°21'1 2.3
2018-Jul-06 11:00N 38°40' W 009°23'2 1.0
2018-Jul-06 08:49N 38°41' W 009°25'0 0.0
2018-Jul-06 08:19N 38°41' W 009°25'0 0.0
2018-Jul-06 06:43N 38°41' W 009°25'0 0.0
2018-Jul-05 23:19N 38°42' W 009°25'1 2.2
2018-Jul-05 22:55N 38°41' W 009°26'4 6.4
2018-Jul-05 22:19N 38°42' W 009°31'2 7.1
2018-Jul-05 22:00N 38°44' W 009°33'3 5.9
2018-Jul-05 21:30N 38°46' W 009°34'4 7.7
2018-Jul-05 21:00N 38°50' W 009°32'4 7.7
2018-Jul-05 20:30N 38°53' W 009°29'4 7.2
2018-Jul-05 19:59N 38°56' W 009°27'2 0.8
2018-Jul-05 17:46N 38°58' W 009°26'1 4.7
2018-Jul-05 17:30N 38°58' W 009°27'3 6.1
2018-Jul-05 17:00N 39°01' W 009°29'  

Dump ship's entire track history